Nicolás Pereyra

Olheiro - Godoy Cruz
20 Fev 2028
Domingo
Processo

Personalidade

Adaptabilidade (18) Ambição (8) Controvérsia (19) Lealdade (1) Pressão (14) Profissionalismo (16) Espírito Esportivo (1) Temperamento (18)

Perfil

Estilo de Treinamento Democrático
Licença Continental B
Determinação 7
Gestão de Pessoas 11
Motivação 5
Disciplina 7
Satisfação no Trabalho
100%
Fadiga
0%
Função Olheiro
Salário 57.9K p/s
Contrato 14.03.2028

Desempenho

Comportamento Bom
Eficácia do Treinamento
34%
Desenvolvimento do Jogador
45%
Prevenção de Lesões
30%
Implementação Tática
25%

Eventos Recentes

Negociação de contrato iniciada agora
Participou de uma reunião de recrutamento agora
Participou de uma reunião de recrutamento agora
Participou de uma reunião de recrutamento agora
Negociação de contrato iniciada agora
Negociação de contrato iniciada agora
Negociação de contrato iniciada agora
Negociação de contrato iniciada 7d atrás

Monitorando agora

88
Jogador Clube Status Habilidade Confiança Observado Última observação Último voto
Alexander Díaz Deportivo Riestra Ativo 122 / 115 40% 1 21.12.2027 -
Mattia Bortolussi Padova Ativo 131 / 127 40% 1 21.12.2027 -
Nicolás Cordero Aldosivi Ativo 117 / 111 40% 3 28.11.2026 -
Yuber Quiñónes Deportivo Pereira Ativo 126 / 114 40% 2 26.11.2026 -
José Martínes CSKA 1948 Ativo 96 / 106 40% 2 23.11.2026 -
Patrik Mijić HNK Gorica Ativo 98 / 113 40% 1 22.11.2026 -
Seedy Jatta Sturm Graz Ativo 112 / 134 40% 1 21.11.2026 -
Daniel Karlsbakk Sarpsborg 08 Ativo 139 / 119 40% 1 19.11.2026 Mais informações
Agustín Fernández NK Zavrc Ativo 76 / 84 40% 3 17.11.2026 -
Yeison Moreno Hajduk Split Ativo 109 / 107 40% 2 17.11.2026 -
Kévin Denkey FC Cincinnati Ativo 133 / 126 40% 4 15.11.2026 Observar
Wessam Abou Ali Columbus Crew Ativo 137 / 120 40% 2 13.11.2026 -
Juan Francisco Rossel Universidad Catolica Ativo 82 / 98 40% 1 13.11.2026 -
Themba Ngcobo SuperSport United Ativo 108 / 118 40% 1 03.11.2026 -
Bénie Traoré New York City Ativo 127 / 134 40% 1 03.11.2026 -
Petar Stanić Ludogorets Ativo 151 / 145 40% 1 03.11.2026 -
Hílder Arboleda Union Magdalena Ativo 85 / 80 40% 1 31.10.2026 -
Tomás González Piast Ativo 106 / 111 40% 5 30.10.2026 -
Archie Goodwin Charlotte Football Club Ativo 100 / 105 40% 2 30.10.2026 -
Alasana Yirajang AS Trencin Ativo 104 / 103 40% 2 28.10.2026 -
Rafael Navarro St. Louis CITY SC Ativo 131 / 117 40% 1 26.10.2026 -
Ezekiel Kwame Alladoh Philadelphia Union Ativo 105 / 115 40% 4 24.10.2026 -
Rodrigo Bogarín Barracas Central Ativo 128 / 109 40% 3 24.10.2026 -
Dilan Godoy Vélez Ativo 104 / 121 40% 1 24.10.2026 -
Adalberto Peñaranda Deportivo Tachira Ativo 114 / 109 40% 1 21.10.2026 -
Breel Embolo Atlanta United FC Ativo 144 / 127 40% 1 21.10.2026 -
David Kalokoh Ajax Ativo 101 / 121 40% 1 21.10.2026 -
Jonás Luna Santa Clara Ativo 108 / 106 40% 2 18.10.2026 -
Victor Adeboyejo Ismaily Ativo 98 / 103 40% 1 14.10.2026 -
Sead Hakšabanović Malmo FF Ativo 108 / 107 40% 1 12.10.2026 -
Facundo Mura Inter Miami CF Ativo 130 / 134 40% 1 12.10.2026 -
Erison Kawasaki Frontale Ativo 135 / 115 40% 1 10.10.2026 -
Tadeo Allende Inter Miami CF Ativo 128 / 121 40% 1 10.10.2026 -
Tomás Chancalay Minnesota United FC Ativo 122 / 134 40% 1 08.10.2026 -
Mandla Mahlangu Ajax Cape Town Ativo 92 / 116 40% 1 07.10.2026 -
Federico Girotti Alianza Lima Ativo 116 / 128 40% 1 05.10.2026 -
Sebastián Cocimano Nueva Chicago Ativo 119 / 110 40% 1 05.10.2026 -
Griffin Yow New England Revolution Ativo 116 / 130 40% 1 04.10.2026 -
Juan Rocca Gimnasia y Tiro Ativo 109 / 104 40% 1 02.10.2026 -
Morgan Guilavogui Real Salt Lake Ativo 121 / 136 40% 1 30.09.2026 -
Marcus Caldeira Minnesota United FC Ativo 96 / 89 40% 1 29.09.2026 -
Sota Kitano Luzern Ativo 124 / 129 40% 1 28.09.2026 -
Cheikh Sabaly Vancouver Whitecaps Ativo 131 / 119 40% 1 27.09.2026 -
Agustín Módica Gimnasia y Esgrima Ativo 122 / 129 40% 1 26.09.2026 -
Bruno Morales Cerro Ativo 84 / 99 40% 1 25.09.2026 -
Eduardo Delmás Olimpia Ativo 79 / 101 40% 1 25.09.2026 -
Antony Alonso Deportivo Riestra Ativo 114 / 120 40% 1 22.09.2026 -
Adrián Alcaraz Pachuca Ativo 107 / 107 40% 1 21.09.2026 -
Santiago Toloza O'Higgins Ativo 117 / 120 40% 1 20.09.2026 -
Victor Olatunji Real Salt Lake Ativo 118 / 126 40% 1 19.09.2026 -
Jonás Acevedo Instituto Ativo 118 / 113 40% 1 19.09.2026 -
Tomás Alarcón Colo-Colo Ativo 115 / 129 40% 1 16.09.2026 -
Juan Camilo Mosquera Atletico Bucaramanga Ativo 115 / 116 40% 1 16.09.2026 -
Adalberto Carrasquilla Pumas UNAM Ativo 128 / 119 40% 1 14.09.2026 -
Ignacio Schor O'Higgins Ativo 118 / 124 40% 1 14.09.2026 -
Lucas Carrizo Plaza Colonia Ativo 109 / 112 40% 2 13.09.2026 -
Juan Pablo Domínguez Leon Ativo 133 / 118 40% 1 13.09.2026 -
Manuel Rodríguez Millonarios Ativo 76 / 97 40% 1 10.09.2026 -
Youssoufa Moukoko FC Copenhagen Ativo 134 / 114 40% 1 08.09.2026 -
Jhojan Julio Queretaro Ativo 130 / 114 40% 2 07.09.2026 -
Mourad Tijuana Ativo 112 / 120 40% 1 07.09.2026 -
Aldair Zárate Atletico Bucaramanga Ativo 123 / 112 40% 1 07.09.2026 -
Yeferson Rodallega Envigado Ativo 123 / 109 40% 1 07.09.2026 -
Agustín Venezia Iquique Ativo 112 / 104 40% 1 04.09.2026 -
Maximiliano Silvera Nacional Ativo 114 / 123 40% 1 31.08.2026 -
Duk Atlas Ativo 117 / 119 40% 1 31.08.2026 -
Lucas Acosta Liverpool Montevideo Ativo 120 / 107 40% 1 30.08.2026 -
Maicol Ferreira Danubio Ativo 99 / 96 40% 1 30.08.2026 -
Yastin Cuevas Colo-Colo Ativo 95 / 96 40% 1 29.08.2026 -
Rodrigo Hernández River Plate Ativo 93 / 99 40% 2 28.08.2026 -
Juan Rodríguez Wanderers Ativo 83 / 90 40% 1 28.08.2026 -
Alan Cantero Alianza Lima Ativo 119 / 115 40% 1 27.08.2026 -
Alejo Cruz Juventud Ativo 116 / 121 40% 2 26.08.2026 -
Enrique Almeida Cerro Largo Ativo 98 / 108 40% 2 25.08.2026 -
Jáder Valencia Deportes Tolima Ativo 120 / 105 40% 1 24.08.2026 -
Lucas Di Yorio Santos Laguna Ativo 109 / 108 40% 1 24.08.2026 -
Róyner Benítez Aguilas Doradas Ativo 105 / 111 40% 1 22.08.2026 -
Agustín Paz Progreso Ativo 118 / 108 40% 1 22.08.2026 -
Federico Viñas Toluca Ativo 132 / 131 40% 1 20.08.2026 -
Simón Meza Cerrito Ativo 93 / 97 40% 1 18.08.2026 -
Justo Giani Universidad Catolica Ativo 111 / 111 40% 1 16.08.2026 -
Sam Surridge Nashville SC Ativo 133 / 137 40% 1 15.08.2026 -
Luis Ramos Alianza Lima Ativo 108 / 120 40% 1 11.08.2026 -
Luciano Inverso Rentistas Ativo 100 / 117 40% 1 11.08.2026 -
Diego Rossi Monterrey Ativo 140 / 125 40% 1 07.08.2026 -
Manuel Ospina Cortulua Ativo 126 / 120 40% 1 06.08.2026 -
Diego Valencia Universidad Catolica Ativo 104 / 98 40% 1 02.08.2026 -
Ismael Díaz Leon Ativo 125 / 128 40% 1 01.08.2026 -